sensor_id;sensor_type;location;lat;lon;timestamp;P1;durP1;ratioP1;P2;durP2;ratioP2
17141;SDS011;32805;53.556;9.944;2023-11-21T00:00:07;21.85;;;11.13;;
17141;SDS011;32805;53.556;9.944;2023-11-21T00:02:39;19.88;;;10.73;;
17141;SDS011;32805;53.556;9.944;2023-11-21T00:05:08;22.25;;;10.30;;
17141;SDS011;32805;53.556;9.944;2023-11-21T00:07:36;16.52;;;9.25;;
17141;SDS011;32805;53.556;9.944;2023-11-21T00:10:04;17.38;;;9.40;;
17141;SDS011;32805;53.556;9.944;2023-11-21T00:12:32;17.45;;;9.70;;
17141;SDS011;32805;53.556;9.944;2023-11-21T00:15:00;16.23;;;9.27;;
17141;SDS011;32805;53.556;9.944;2023-11-21T00:17:28;16.10;;;9.05;;
17141;SDS011;32805;53.556;9.944;2023-11-21T00:19:56;15.30;;;9.20;;
17141;SDS011;32805;53.556;9.944;2023-11-21T00:22:25;14.15;;;8.75;;
17141;SDS011;32805;53.556;9.944;2023-11-21T00:24:52;14.98;;;8.35;;
17141;SDS011;32805;53.556;9.944;2023-11-21T00:27:19;13.27;;;8.80;;
17141;SDS011;32805;53.556;9.944;2023-11-21T00:29:47;12.45;;;7.97;;
17141;SDS011;32805;53.556;9.944;2023-11-21T00:32:14;11.15;;;8.07;;
17141;SDS011;32805;53.556;9.944;2023-11-21T00:34:42;10.70;;;7.88;;
17141;SDS011;32805;53.556;9.944;2023-11-21T00:37:10;12.48;;;7.60;;
17141;SDS011;32805;53.556;9.944;2023-11-21T00:39:39;9.57;;;7.10;;
17141;SDS011;32805;53.556;9.944;2023-11-21T00:42:06;11.02;;;7.75;;
17141;SDS011;32805;53.556;9.944;2023-11-21T00:44:34;10.52;;;7.07;;
17141;SDS011;32805;53.556;9.944;2023-11-21T00:47:04;10.20;;;7.55;;
17141;SDS011;32805;53.556;9.944;2023-11-21T00:49:32;13.18;;;7.60;;
17141;SDS011;32805;53.556;9.944;2023-11-21T00:51:59;10.88;;;8.15;;
17141;SDS011;32805;53.556;9.944;2023-11-21T00:54:27;14.48;;;8.60;;
17141;SDS011;32805;53.556;9.944;2023-11-21T00:57:00;13.98;;;8.23;;
17141;SDS011;32805;53.556;9.944;2023-11-21T00:59:27;15.95;;;8.55;;
17141;SDS011;32805;53.556;9.944;2023-11-21T01:01:55;16.20;;;9.93;;
17141;SDS011;32805;53.556;9.944;2023-11-21T01:04:24;13.18;;;8.55;;
17141;SDS011;32805;53.556;9.944;2023-11-21T01:06:51;15.25;;;9.25;;
17141;SDS011;32805;53.556;9.944;2023-11-21T01:09:18;15.23;;;9.55;;
17141;SDS011;32805;53.556;9.944;2023-11-21T01:11:46;20.52;;;10.23;;
17141;SDS011;32805;53.556;9.944;2023-11-21T01:14:15;16.42;;;10.68;;
17141;SDS011;32805;53.556;9.944;2023-11-21T01:16:43;16.92;;;10.43;;
17141;SDS011;32805;53.556;9.944;2023-11-21T01:19:11;18.63;;;11.65;;
17141;SDS011;32805;53.556;9.944;2023-11-21T01:21:39;16.20;;;11.40;;
17141;SDS011;32805;53.556;9.944;2023-11-21T01:24:07;23.17;;;13.43;;
17141;SDS011;32805;53.556;9.944;2023-11-21T01:26:35;20.23;;;11.63;;
17141;SDS011;32805;53.556;9.944;2023-11-21T01:29:03;19.05;;;13.38;;
17141;SDS011;32805;53.556;9.944;2023-11-21T01:31:32;20.15;;;11.93;;
17141;SDS011;32805;53.556;9.944;2023-11-21T01:33:59;17.48;;;11.43;;
17141;SDS011;32805;53.556;9.944;2023-11-21T01:36:29;18.83;;;11.90;;
17141;SDS011;32805;53.556;9.944;2023-11-21T01:38:58;18.55;;;11.88;;
17141;SDS011;32805;53.556;9.944;2023-11-21T01:41:26;19.17;;;12.73;;
17141;SDS011;32805;53.556;9.944;2023-11-21T01:43:55;18.23;;;12.35;;
17141;SDS011;32805;53.556;9.944;2023-11-21T01:46:22;19.77;;;12.35;;
17141;SDS011;32805;53.556;9.944;2023-11-21T01:48:51;21.20;;;12.75;;
17141;SDS011;32805;53.556;9.944;2023-11-21T01:51:20;16.75;;;11.30;;
17141;SDS011;32805;53.556;9.944;2023-11-21T01:53:47;17.45;;;10.75;;
17141;SDS011;32805;53.556;9.944;2023-11-21T01:56:15;15.70;;;9.80;;
17141;SDS011;32805;53.556;9.944;2023-11-21T01:58:43;15.18;;;9.63;;
17141;SDS011;32805;53.556;9.944;2023-11-21T02:01:13;16.67;;;9.48;;
17141;SDS011;32805;53.556;9.944;2023-11-21T02:03:41;12.57;;;9.57;;
17141;SDS011;32805;53.556;9.944;2023-11-21T02:06:10;14.00;;;9.48;;
17141;SDS011;32805;53.556;9.944;2023-11-21T02:08:37;14.20;;;8.88;;
17141;SDS011;32805;53.556;9.944;2023-11-21T02:11:05;11.00;;;8.02;;
17141;SDS011;32805;53.556;9.944;2023-11-21T02:13:33;13.10;;;9.02;;
17141;SDS011;32805;53.556;9.944;2023-11-21T02:16:01;11.70;;;7.40;;
17141;SDS011;32805;53.556;9.944;2023-11-21T02:18:28;11.77;;;8.65;;
17141;SDS011;32805;53.556;9.944;2023-11-21T02:20:56;12.18;;;8.88;;
17141;SDS011;32805;53.556;9.944;2023-11-21T02:23:25;9.65;;;7.80;;
17141;SDS011;32805;53.556;9.944;2023-11-21T02:25:55;14.65;;;8.35;;
17141;SDS011;32805;53.556;9.944;2023-11-21T02:28:23;10.88;;;7.57;;
17141;SDS011;32805;53.556;9.944;2023-11-21T02:30:52;11.55;;;7.40;;
17141;SDS011;32805;53.556;9.944;2023-11-21T02:33:22;9.25;;;6.88;;
17141;SDS011;32805;53.556;9.944;2023-11-21T02:35:49;9.40;;;6.90;;
17141;SDS011;32805;53.556;9.944;2023-11-21T02:38:20;9.05;;;6.85;;
17141;SDS011;32805;53.556;9.944;2023-11-21T02:40:49;9.32;;;6.50;;
17141;SDS011;32805;53.556;9.944;2023-11-21T02:43:17;8.23;;;6.40;;
17141;SDS011;32805;53.556;9.944;2023-11-21T02:45:45;10.50;;;6.30;;
17141;SDS011;32805;53.556;9.944;2023-11-21T02:48:12;6.97;;;5.88;;
17141;SDS011;32805;53.556;9.944;2023-11-21T02:50:40;8.65;;;6.72;;
17141;SDS011;32805;53.556;9.944;2023-11-21T02:53:09;10.43;;;7.47;;
17141;SDS011;32805;53.556;9.944;2023-11-21T02:55:37;8.23;;;6.55;;
17141;SDS011;32805;53.556;9.944;2023-11-21T02:58:06;8.95;;;6.90;;
17141;SDS011;32805;53.556;9.944;2023-11-21T03:00:33;9.57;;;6.53;;
17141;SDS011;32805;53.556;9.944;2023-11-21T03:03:01;10.05;;;6.72;;
17141;SDS011;32805;53.556;9.944;2023-11-21T03:05:28;8.85;;;6.80;;
17141;SDS011;32805;53.556;9.944;2023-11-21T03:07:56;10.88;;;6.90;;
17141;SDS011;32805;53.556;9.944;2023-11-21T03:10:25;9.82;;;7.22;;
17141;SDS011;32805;53.556;9.944;2023-11-21T03:12:54;8.23;;;6.85;;
17141;SDS011;32805;53.556;9.944;2023-11-21T03:15:22;11.25;;;7.65;;
17141;SDS011;32805;53.556;9.944;2023-11-21T03:17:50;10.90;;;6.75;;
17141;SDS011;32805;53.556;9.944;2023-11-21T03:20:18;8.90;;;6.90;;
17141;SDS011;32805;53.556;9.944;2023-11-21T03:22:45;8.35;;;6.25;;
17141;SDS011;32805;53.556;9.944;2023-11-21T03:25:14;9.38;;;7.10;;
17141;SDS011;32805;53.556;9.944;2023-11-21T03:27:43;9.52;;;7.38;;
17141;SDS011;32805;53.556;9.944;2023-11-21T03:30:11;9.07;;;6.72;;
17141;SDS011;32805;53.556;9.944;2023-11-21T03:32:40;9.88;;;7.47;;
17141;SDS011;32805;53.556;9.944;2023-11-21T03:35:08;9.73;;;7.18;;
17141;SDS011;32805;53.556;9.944;2023-11-21T03:37:36;9.40;;;6.53;;
17141;SDS011;32805;53.556;9.944;2023-11-21T03:40:05;9.80;;;6.70;;
17141;SDS011;32805;53.556;9.944;2023-11-21T03:42:34;8.60;;;6.82;;
17141;SDS011;32805;53.556;9.944;2023-11-21T03:45:02;9.32;;;6.68;;
17141;SDS011;32805;53.556;9.944;2023-11-21T03:47:30;8.35;;;6.53;;
17141;SDS011;32805;53.556;9.944;2023-11-21T03:49:59;9.77;;;7.40;;
17141;SDS011;32805;53.556;9.944;2023-11-21T03:52:27;9.23;;;6.88;;
17141;SDS011;32805;53.556;9.944;2023-11-21T03:54:54;9.57;;;7.75;;
17141;SDS011;32805;53.556;9.944;2023-11-21T03:57:22;10.35;;;7.07;;
17141;SDS011;32805;53.556;9.944;2023-11-21T03:59:49;10.10;;;7.20;;
17141;SDS011;32805;53.556;9.944;2023-11-21T04:02:19;9.65;;;7.82;;
17141;SDS011;32805;53.556;9.944;2023-11-21T04:04:46;10.60;;;7.40;;
17141;SDS011;32805;53.556;9.944;2023-11-21T04:07:15;10.75;;;6.63;;
17141;SDS011;32805;53.556;9.944;2023-11-21T04:09:43;9.35;;;6.57;;
17141;SDS011;32805;53.556;9.944;2023-11-21T04:12:11;10.60;;;7.57;;
17141;SDS011;32805;53.556;9.944;2023-11-21T04:14:38;14.95;;;9.32;;
17141;SDS011;32805;53.556;9.944;2023-11-21T04:17:06;10.25;;;6.63;;
17141;SDS011;32805;53.556;9.944;2023-11-21T04:19:33;11.38;;;6.90;;
17141;SDS011;32805;53.556;9.944;2023-11-21T04:22:01;10.88;;;7.13;;
17141;SDS011;32805;53.556;9.944;2023-11-21T04:24:30;9.68;;;7.32;;
17141;SDS011;32805;53.556;9.944;2023-11-21T04:26:57;9.20;;;6.97;;
17141;SDS011;32805;53.556;9.944;2023-11-21T04:29:25;10.30;;;7.13;;
17141;SDS011;32805;53.556;9.944;2023-11-21T04:31:53;13.82;;;7.88;;
17141;SDS011;32805;53.556;9.944;2023-11-21T04:34:20;10.07;;;7.68;;
17141;SDS011;32805;53.556;9.944;2023-11-21T04:36:49;8.23;;;7.43;;
17141;SDS011;32805;53.556;9.944;2023-11-21T04:39:16;12.55;;;7.13;;
17141;SDS011;32805;53.556;9.944;2023-11-21T04:41:45;10.82;;;7.38;;
17141;SDS011;32805;53.556;9.944;2023-11-21T04:44:12;10.52;;;7.70;;
17141;SDS011;32805;53.556;9.944;2023-11-21T04:46:40;9.60;;;7.65;;
17141;SDS011;32805;53.556;9.944;2023-11-21T04:49:07;11.98;;;8.18;;
17141;SDS011;32805;53.556;9.944;2023-11-21T04:51:35;12.70;;;8.27;;
17141;SDS011;32805;53.556;9.944;2023-11-21T04:54:03;12.63;;;8.00;;
17141;SDS011;32805;53.556;9.944;2023-11-21T04:56:32;10.25;;;7.63;;
17141;SDS011;32805;53.556;9.944;2023-11-21T04:59:00;10.77;;;7.65;;
17141;SDS011;32805;53.556;9.944;2023-11-21T05:01:28;8.70;;;7.32;;
17141;SDS011;32805;53.556;9.944;2023-11-21T05:03:55;9.57;;;7.63;;
17141;SDS011;32805;53.556;9.944;2023-11-21T05:06:23;13.25;;;7.68;;
17141;SDS011;32805;53.556;9.944;2023-11-21T05:08:51;10.07;;;6.93;;
17141;SDS011;32805;53.556;9.944;2023-11-21T05:11:27;9.55;;;7.13;;
17141;SDS011;32805;53.556;9.944;2023-11-21T05:13:55;9.73;;;7.28;;
17141;SDS011;32805;53.556;9.944;2023-11-21T05:16:26;8.77;;;7.55;;
17141;SDS011;32805;53.556;9.944;2023-11-21T05:18:54;8.65;;;7.38;;
17141;SDS011;32805;53.556;9.944;2023-11-21T05:21:26;8.88;;;7.22;;
17141;SDS011;32805;53.556;9.944;2023-11-21T05:23:53;9.10;;;7.13;;
17141;SDS011;32805;53.556;9.944;2023-11-21T05:26:21;9.02;;;7.18;;
17141;SDS011;32805;53.556;9.944;2023-11-21T05:28:48;9.05;;;7.22;;
17141;SDS011;32805;53.556;9.944;2023-11-21T05:31:16;9.43;;;7.70;;
17141;SDS011;32805;53.556;9.944;2023-11-21T05:33:45;8.75;;;7.38;;
17141;SDS011;32805;53.556;9.944;2023-11-21T05:36:12;10.15;;;7.43;;
17141;SDS011;32805;53.556;9.944;2023-11-21T05:38:40;9.88;;;7.25;;
17141;SDS011;32805;53.556;9.944;2023-11-21T05:41:07;9.68;;;7.22;;
17141;SDS011;32805;53.556;9.944;2023-11-21T05:43:37;17.42;;;8.82;;
17141;SDS011;32805;53.556;9.944;2023-11-21T05:46:04;10.88;;;6.90;;
17141;SDS011;32805;53.556;9.944;2023-11-21T05:48:33;12.40;;;8.85;;
17141;SDS011;32805;53.556;9.944;2023-11-21T05:51:06;16.02;;;11.38;;
17141;SDS011;32805;53.556;9.944;2023-11-21T05:53:34;12.35;;;8.30;;
17141;SDS011;32805;53.556;9.944;2023-11-21T05:56:02;9.25;;;7.70;;
17141;SDS011;32805;53.556;9.944;2023-11-21T05:58:30;8.35;;;7.03;;
17141;SDS011;32805;53.556;9.944;2023-11-21T06:00:57;10.30;;;7.47;;
17141;SDS011;32805;53.556;9.944;2023-11-21T06:03:25;8.98;;;7.35;;
17141;SDS011;32805;53.556;9.944;2023-11-21T06:05:53;8.48;;;7.22;;
17141;SDS011;32805;53.556;9.944;2023-11-21T06:08:21;9.80;;;7.22;;
17141;SDS011;32805;53.556;9.944;2023-11-21T06:10:49;9.27;;;7.13;;
17141;SDS011;32805;53.556;9.944;2023-11-21T06:13:16;13.40;;;7.75;;
17141;SDS011;32805;53.556;9.944;2023-11-21T06:15:47;10.07;;;7.15;;
17141;SDS011;32805;53.556;9.944;2023-11-21T06:18:14;8.98;;;7.47;;
17141;SDS011;32805;53.556;9.944;2023-11-21T06:20:42;9.02;;;7.18;;
17141;SDS011;32805;53.556;9.944;2023-11-21T06:23:09;9.60;;;7.40;;
17141;SDS011;32805;53.556;9.944;2023-11-21T06:25:38;9.70;;;7.28;;
17141;SDS011;32805;53.556;9.944;2023-11-21T06:28:06;10.18;;;7.63;;
17141;SDS011;32805;53.556;9.944;2023-11-21T06:30:34;11.32;;;8.43;;
17141;SDS011;32805;53.556;9.944;2023-11-21T06:33:02;11.05;;;8.57;;
17141;SDS011;32805;53.556;9.944;2023-11-21T06:35:29;12.10;;;8.05;;
17141;SDS011;32805;53.556;9.944;2023-11-21T06:38:06;9.40;;;7.63;;
17141;SDS011;32805;53.556;9.944;2023-11-21T06:40:35;9.85;;;7.40;;
17141;SDS011;32805;53.556;9.944;2023-11-21T06:43:04;11.05;;;7.13;;
17141;SDS011;32805;53.556;9.944;2023-11-21T06:45:33;8.85;;;7.10;;
17141;SDS011;32805;53.556;9.944;2023-11-21T06:48:01;11.20;;;7.70;;
17141;SDS011;32805;53.556;9.944;2023-11-21T06:50:29;9.13;;;7.50;;
17141;SDS011;32805;53.556;9.944;2023-11-21T06:52:57;9.68;;;7.47;;
17141;SDS011;32805;53.556;9.944;2023-11-21T06:55:24;10.32;;;7.88;;
17141;SDS011;32805;53.556;9.944;2023-11-21T06:57:52;8.98;;;7.13;;
17141;SDS011;32805;53.556;9.944;2023-11-21T07:00:21;11.60;;;9.15;;
17141;SDS011;32805;53.556;9.944;2023-11-21T07:02:48;11.63;;;8.93;;
17141;SDS011;32805;53.556;9.944;2023-11-21T07:05:16;12.27;;;8.45;;
17141;SDS011;32805;53.556;9.944;2023-11-21T07:07:47;14.98;;;10.18;;
17141;SDS011;32805;53.556;9.944;2023-11-21T07:10:15;14.05;;;10.88;;
17141;SDS011;32805;53.556;9.944;2023-11-21T07:12:43;13.35;;;10.15;;
17141;SDS011;32805;53.556;9.944;2023-11-21T07:15:10;12.43;;;9.48;;
17141;SDS011;32805;53.556;9.944;2023-11-21T07:17:40;16.08;;;10.10;;
17141;SDS011;32805;53.556;9.944;2023-11-21T07:20:07;13.18;;;8.40;;
17141;SDS011;32805;53.556;9.944;2023-11-21T07:22:35;11.70;;;7.80;;
17141;SDS011;32805;53.556;9.944;2023-11-21T07:25:04;10.57;;;8.15;;
17141;SDS011;32805;53.556;9.944;2023-11-21T07:27:31;8.52;;;6.82;;
17141;SDS011;32805;53.556;9.944;2023-11-21T07:30:00;9.05;;;7.50;;
17141;SDS011;32805;53.556;9.944;2023-11-21T07:32:29;10.25;;;7.20;;
17141;SDS011;32805;53.556;9.944;2023-11-21T07:34:58;9.23;;;7.50;;
17141;SDS011;32805;53.556;9.944;2023-11-21T07:37:27;10.23;;;7.30;;
17141;SDS011;32805;53.556;9.944;2023-11-21T07:39:55;7.97;;;6.68;;
17141;SDS011;32805;53.556;9.944;2023-11-21T07:42:23;10.95;;;7.57;;
17141;SDS011;32805;53.556;9.944;2023-11-21T07:44:52;8.77;;;6.97;;
17141;SDS011;32805;53.556;9.944;2023-11-21T07:47:20;9.00;;;7.15;;
17141;SDS011;32805;53.556;9.944;2023-11-21T07:49:47;11.27;;;7.28;;
17141;SDS011;32805;53.556;9.944;2023-11-21T07:52:16;7.85;;;6.80;;
17141;SDS011;32805;53.556;9.944;2023-11-21T07:54:44;11.13;;;7.78;;
17141;SDS011;32805;53.556;9.944;2023-11-21T07:57:11;12.60;;;7.05;;
17141;SDS011;32805;53.556;9.944;2023-11-21T07:59:40;8.50;;;6.78;;
17141;SDS011;32805;53.556;9.944;2023-11-21T08:02:08;9.35;;;6.70;;
17141;SDS011;32805;53.556;9.944;2023-11-21T08:04:35;8.50;;;6.20;;
17141;SDS011;32805;53.556;9.944;2023-11-21T08:07:03;7.45;;;5.85;;
17141;SDS011;32805;53.556;9.944;2023-11-21T08:09:32;9.32;;;6.78;;
17141;SDS011;32805;53.556;9.944;2023-11-21T08:12:00;8.80;;;6.40;;
17141;SDS011;32805;53.556;9.944;2023-11-21T08:14:29;7.18;;;6.05;;
17141;SDS011;32805;53.556;9.944;2023-11-21T08:16:56;10.52;;;6.72;;
17141;SDS011;32805;53.556;9.944;2023-11-21T08:19:24;7.38;;;5.57;;
17141;SDS011;32805;53.556;9.944;2023-11-21T08:21:52;7.60;;;5.22;;
17141;SDS011;32805;53.556;9.944;2023-11-21T08:24:21;10.05;;;5.15;;
17141;SDS011;32805;53.556;9.944;2023-11-21T08:26:49;8.32;;;5.72;;
17141;SDS011;32805;53.556;9.944;2023-11-21T08:29:18;7.25;;;5.32;;
17141;SDS011;32805;53.556;9.944;2023-11-21T08:31:45;9.55;;;5.82;;
17141;SDS011;32805;53.556;9.944;2023-11-21T08:34:13;6.65;;;5.68;;
17141;SDS011;32805;53.556;9.944;2023-11-21T08:36:42;9.27;;;5.22;;
17141;SDS011;32805;53.556;9.944;2023-11-21T08:39:10;8.57;;;5.30;;
17141;SDS011;32805;53.556;9.944;2023-11-21T08:41:40;5.57;;;4.85;;
17141;SDS011;32805;53.556;9.944;2023-11-21T08:44:09;6.57;;;5.57;;
17141;SDS011;32805;53.556;9.944;2023-11-21T08:46:37;6.63;;;4.47;;
17141;SDS011;32805;53.556;9.944;2023-11-21T08:49:06;4.85;;;3.92;;
17141;SDS011;32805;53.556;9.944;2023-11-21T08:51:33;5.63;;;5.00;;
17141;SDS011;32805;53.556;9.944;2023-11-21T08:54:01;5.75;;;4.35;;
17141;SDS011;32805;53.556;9.944;2023-11-21T08:56:30;4.90;;;3.95;;
17141;SDS011;32805;53.556;9.944;2023-11-21T08:58:58;5.28;;;4.25;;
17141;SDS011;32805;53.556;9.944;2023-11-21T09:01:28;6.18;;;4.45;;
17141;SDS011;32805;53.556;9.944;2023-11-21T09:03:57;5.15;;;4.10;;
17141;SDS011;32805;53.556;9.944;2023-11-21T09:06:25;5.47;;;4.43;;
17141;SDS011;32805;53.556;9.944;2023-11-21T09:08:52;5.78;;;4.53;;
17141;SDS011;32805;53.556;9.944;2023-11-21T09:11:20;6.15;;;4.50;;
17141;SDS011;32805;53.556;9.944;2023-11-21T09:13:48;6.50;;;4.22;;
17141;SDS011;32805;53.556;9.944;2023-11-21T09:16:15;5.50;;;4.25;;
17141;SDS011;32805;53.556;9.944;2023-11-21T09:18:44;7.45;;;4.35;;
17141;SDS011;32805;53.556;9.944;2023-11-21T09:21:12;6.80;;;4.70;;
17141;SDS011;32805;53.556;9.944;2023-11-21T09:23:40;6.22;;;4.60;;
17141;SDS011;32805;53.556;9.944;2023-11-21T09:26:08;7.18;;;4.47;;
17141;SDS011;32805;53.556;9.944;2023-11-21T09:28:36;5.18;;;4.18;;
17141;SDS011;32805;53.556;9.944;2023-11-21T09:31:04;6.53;;;4.57;;
17141;SDS011;32805;53.556;9.944;2023-11-21T09:33:35;7.43;;;4.40;;
17141;SDS011;32805;53.556;9.944;2023-11-21T09:36:10;7.50;;;5.45;;
17141;SDS011;32805;53.556;9.944;2023-11-21T09:38:38;4.78;;;4.03;;
17141;SDS011;32805;53.556;9.944;2023-11-21T09:41:06;5.65;;;4.03;;
17141;SDS011;32805;53.556;9.944;2023-11-21T09:43:35;5.22;;;3.97;;
17141;SDS011;32805;53.556;9.944;2023-11-21T09:46:03;4.50;;;3.65;;
17141;SDS011;32805;53.556;9.944;2023-11-21T09:48:37;4.65;;;3.55;;
17141;SDS011;32805;53.556;9.944;2023-11-21T09:51:07;4.53;;;3.67;;
17141;SDS011;32805;53.556;9.944;2023-11-21T09:53:35;7.22;;;4.25;;
17141;SDS011;32805;53.556;9.944;2023-11-21T09:56:04;5.57;;;3.78;;
17141;SDS011;32805;53.556;9.944;2023-11-21T09:58:32;5.82;;;3.67;;
17141;SDS011;32805;53.556;9.944;2023-11-21T10:01:01;4.90;;;3.85;;
17141;SDS011;32805;53.556;9.944;2023-11-21T10:03:29;4.82;;;3.83;;
17141;SDS011;32805;53.556;9.944;2023-11-21T10:05:57;3.17;;;2.88;;
17141;SDS011;32805;53.556;9.944;2023-11-21T10:08:28;3.40;;;2.78;;
17141;SDS011;32805;53.556;9.944;2023-11-21T10:11:15;3.65;;;3.00;;
17141;SDS011;32805;53.556;9.944;2023-11-21T10:13:44;4.30;;;3.20;;
17141;SDS011;32805;53.556;9.944;2023-11-21T10:16:13;4.97;;;3.30;;
17141;SDS011;32805;53.556;9.944;2023-11-21T10:18:42;5.93;;;3.53;;
17141;SDS011;32805;53.556;9.944;2023-11-21T10:21:11;3.85;;;3.25;;
17141;SDS011;32805;53.556;9.944;2023-11-21T10:23:40;4.95;;;3.40;;
17141;SDS011;32805;53.556;9.944;2023-11-21T10:26:07;3.13;;;2.83;;
17141;SDS011;32805;53.556;9.944;2023-11-21T10:28:56;5.80;;;3.40;;
17141;SDS011;32805;53.556;9.944;2023-11-21T10:31:24;5.18;;;2.92;;
17141;SDS011;32805;53.556;9.944;2023-11-21T10:33:52;3.20;;;2.88;;
17141;SDS011;32805;53.556;9.944;2023-11-21T10:36:26;4.38;;;3.33;;
17141;SDS011;32805;53.556;9.944;2023-11-21T10:38:55;5.20;;;3.13;;
17141;SDS011;32805;53.556;9.944;2023-11-21T10:41:23;4.20;;;3.13;;
17141;SDS011;32805;53.556;9.944;2023-11-21T10:43:52;3.38;;;3.08;;
17141;SDS011;32805;53.556;9.944;2023-11-21T10:46:21;5.18;;;3.53;;
17141;SDS011;32805;53.556;9.944;2023-11-21T10:48:51;4.35;;;3.30;;
17141;SDS011;32805;53.556;9.944;2023-11-21T10:51:20;7.18;;;4.55;;
17141;SDS011;32805;53.556;9.944;2023-11-21T10:53:48;3.95;;;3.17;;
17141;SDS011;32805;53.556;9.944;2023-11-21T10:56:18;4.25;;;3.30;;
17141;SDS011;32805;53.556;9.944;2023-11-21T10:58:47;3.03;;;2.50;;
17141;SDS011;32805;53.556;9.944;2023-11-21T11:01:16;3.33;;;2.63;;
17141;SDS011;32805;53.556;9.944;2023-11-21T11:03:44;4.10;;;2.53;;
17141;SDS011;32805;53.556;9.944;2023-11-21T11:06:12;4.82;;;3.10;;
17141;SDS011;32805;53.556;9.944;2023-11-21T11:08:41;2.90;;;2.65;;
17141;SDS011;32805;53.556;9.944;2023-11-21T11:11:09;4.88;;;2.83;;
17141;SDS011;32805;53.556;9.944;2023-11-21T11:13:38;3.20;;;2.90;;
17141;SDS011;32805;53.556;9.944;2023-11-21T11:16:10;5.03;;;3.10;;
17141;SDS011;32805;53.556;9.944;2023-11-21T11:18:43;5.13;;;3.33;;
17141;SDS011;32805;53.556;9.944;2023-11-21T11:21:16;6.40;;;4.03;;
17141;SDS011;32805;53.556;9.944;2023-11-21T11:23:51;4.45;;;3.10;;
17141;SDS011;32805;53.556;9.944;2023-11-21T11:26:28;4.00;;;2.85;;
17141;SDS011;32805;53.556;9.944;2023-11-21T11:29:03;3.45;;;2.95;;
17141;SDS011;32805;53.556;9.944;2023-11-21T11:31:37;4.65;;;3.42;;
17141;SDS011;32805;53.556;9.944;2023-11-21T11:34:08;5.38;;;3.47;;
17141;SDS011;32805;53.556;9.944;2023-11-21T11:36:40;4.65;;;2.83;;
17141;SDS011;32805;53.556;9.944;2023-11-21T11:39:27;4.15;;;2.75;;
17141;SDS011;32805;53.556;9.944;2023-11-21T11:41:55;6.60;;;3.50;;
17141;SDS011;32805;53.556;9.944;2023-11-21T11:47:07;3.50;;;2.72;;
17141;SDS011;32805;53.556;9.944;2023-11-21T11:49:54;3.15;;;2.85;;
17141;SDS011;32805;53.556;9.944;2023-11-21T11:52:35;4.50;;;2.60;;
17141;SDS011;32805;53.556;9.944;2023-11-21T11:55:03;3.03;;;2.58;;
17141;SDS011;32805;53.556;9.944;2023-11-21T11:57:31;3.70;;;2.85;;
17141;SDS011;32805;53.556;9.944;2023-11-21T12:00:09;5.25;;;2.70;;
17141;SDS011;32805;53.556;9.944;2023-11-21T12:02:39;3.63;;;2.63;;
17141;SDS011;32805;53.556;9.944;2023-11-21T12:05:08;3.45;;;2.75;;
17141;SDS011;32805;53.556;9.944;2023-11-21T12:07:43;4.22;;;3.00;;
17141;SDS011;32805;53.556;9.944;2023-11-21T12:10:13;5.20;;;2.50;;
17141;SDS011;32805;53.556;9.944;2023-11-21T12:12:44;3.67;;;2.92;;
17141;SDS011;32805;53.556;9.944;2023-11-21T12:15:12;4.57;;;2.70;;
17141;SDS011;32805;53.556;9.944;2023-11-21T12:17:42;3.50;;;2.80;;
17141;SDS011;32805;53.556;9.944;2023-11-21T12:20:11;3.85;;;3.03;;
17141;SDS011;32805;53.556;9.944;2023-11-21T12:22:42;4.00;;;2.80;;
17141;SDS011;32805;53.556;9.944;2023-11-21T12:25:10;5.20;;;3.22;;
17141;SDS011;32805;53.556;9.944;2023-11-21T12:27:42;3.72;;;3.00;;
17141;SDS011;32805;53.556;9.944;2023-11-21T12:30:11;3.22;;;2.42;;
17141;SDS011;32805;53.556;9.944;2023-11-21T12:32:43;4.47;;;2.83;;
17141;SDS011;32805;53.556;9.944;2023-11-21T12:35:12;3.95;;;3.05;;
17141;SDS011;32805;53.556;9.944;2023-11-21T12:37:40;3.17;;;2.88;;
17141;SDS011;32805;53.556;9.944;2023-11-21T12:40:09;4.57;;;3.10;;
17141;SDS011;32805;53.556;9.944;2023-11-21T12:42:39;4.47;;;2.70;;
17141;SDS011;32805;53.556;9.944;2023-11-21T12:45:10;3.30;;;2.70;;
17141;SDS011;32805;53.556;9.944;2023-11-21T12:47:43;5.13;;;3.55;;
17141;SDS011;32805;53.556;9.944;2023-11-21T12:50:11;5.22;;;3.08;;
17141;SDS011;32805;53.556;9.944;2023-11-21T12:52:41;4.78;;;3.20;;
17141;SDS011;32805;53.556;9.944;2023-11-21T12:55:10;3.20;;;2.85;;
17141;SDS011;32805;53.556;9.944;2023-11-21T12:57:44;4.78;;;3.13;;
17141;SDS011;32805;53.556;9.944;2023-11-21T13:00:12;4.18;;;3.08;;
17141;SDS011;32805;53.556;9.944;2023-11-21T13:02:52;3.35;;;3.05;;
17141;SDS011;32805;53.556;9.944;2023-11-21T13:05:23;4.32;;;2.70;;
17141;SDS011;32805;53.556;9.944;2023-11-21T13:07:51;3.30;;;2.67;;
17141;SDS011;32805;53.556;9.944;2023-11-21T13:10:21;3.65;;;2.88;;
17141;SDS011;32805;53.556;9.944;2023-11-21T13:12:52;3.35;;;3.05;;
17141;SDS011;32805;53.556;9.944;2023-11-21T13:15:21;3.45;;;2.70;;
17141;SDS011;32805;53.556;9.944;2023-11-21T13:17:48;4.50;;;2.63;;
17141;SDS011;32805;53.556;9.944;2023-11-21T13:20:18;2.75;;;2.28;;
17141;SDS011;32805;53.556;9.944;2023-11-21T13:22:47;2.67;;;2.47;;
17141;SDS011;32805;53.556;9.944;2023-11-21T13:25:15;3.40;;;2.70;;
17141;SDS011;32805;53.556;9.944;2023-11-21T13:27:44;3.67;;;2.83;;
17141;SDS011;32805;53.556;9.944;2023-11-21T13:30:12;3.08;;;2.47;;
17141;SDS011;32805;53.556;9.944;2023-11-21T13:32:42;4.05;;;2.78;;
17141;SDS011;32805;53.556;9.944;2023-11-21T13:35:10;6.22;;;2.78;;
17141;SDS011;32805;53.556;9.944;2023-11-21T13:37:48;4.03;;;2.58;;
17141;SDS011;32805;53.556;9.944;2023-11-21T13:40:21;4.28;;;2.70;;
17141;SDS011;32805;53.556;9.944;2023-11-21T13:42:52;2.70;;;2.40;;
17141;SDS011;32805;53.556;9.944;2023-11-21T13:45:21;2.85;;;2.55;;
17141;SDS011;32805;53.556;9.944;2023-11-21T13:47:49;3.38;;;2.67;;
17141;SDS011;32805;53.556;9.944;2023-11-21T13:50:24;3.67;;;2.70;;
17141;SDS011;32805;53.556;9.944;2023-11-21T13:52:57;3.83;;;3.10;;
17141;SDS011;32805;53.556;9.944;2023-11-21T13:55:27;3.85;;;3.08;;
17141;SDS011;32805;53.556;9.944;2023-11-21T13:57:55;3.13;;;2.83;;
17141;SDS011;32805;53.556;9.944;2023-11-21T14:00:22;4.00;;;3.50;;
17141;SDS011;32805;53.556;9.944;2023-11-21T14:03:04;3.28;;;2.50;;
17141;SDS011;32805;53.556;9.944;2023-11-21T14:05:37;2.97;;;2.63;;
17141;SDS011;32805;53.556;9.944;2023-11-21T14:08:06;5.43;;;2.47;;
17141;SDS011;32805;53.556;9.944;2023-11-21T14:10:34;2.95;;;2.50;;
17141;SDS011;32805;53.556;9.944;2023-11-21T14:13:09;3.55;;;2.63;;
17141;SDS011;32805;53.556;9.944;2023-11-21T14:15:38;3.97;;;2.25;;
17141;SDS011;32805;53.556;9.944;2023-11-21T14:18:09;3.65;;;2.42;;
17141;SDS011;32805;53.556;9.944;2023-11-21T14:20:37;3.30;;;2.60;;
17141;SDS011;32805;53.556;9.944;2023-11-21T14:23:07;2.75;;;2.55;;
17141;SDS011;32805;53.556;9.944;2023-11-21T14:25:35;2.97;;;2.53;;
17141;SDS011;32805;53.556;9.944;2023-11-21T14:28:03;4.03;;;2.72;;
17141;SDS011;32805;53.556;9.944;2023-11-21T14:30:32;3.42;;;2.58;;
17141;SDS011;32805;53.556;9.944;2023-11-21T14:33:02;4.00;;;3.00;;
17141;SDS011;32805;53.556;9.944;2023-11-21T14:35:30;5.63;;;2.95;;
17141;SDS011;32805;53.556;9.944;2023-11-21T14:37:58;4.90;;;3.20;;
17141;SDS011;32805;53.556;9.944;2023-11-21T14:40:28;3.45;;;2.85;;
17141;SDS011;32805;53.556;9.944;2023-11-21T14:42:59;2.83;;;2.50;;
17141;SDS011;32805;53.556;9.944;2023-11-21T14:45:27;3.60;;;2.70;;
17141;SDS011;32805;53.556;9.944;2023-11-21T14:47:55;3.40;;;2.80;;
17141;SDS011;32805;53.556;9.944;2023-11-21T14:50:32;3.83;;;2.60;;
17141;SDS011;32805;53.556;9.944;2023-11-21T14:53:36;3.83;;;2.25;;
17141;SDS011;32805;53.556;9.944;2023-11-21T14:56:11;5.35;;;2.33;;